Time;durP1;ratioP1;P1;durP2;ratioP2;P2;SDS_P1;SDS_P2;PMS_P1;PMS_P2;Temp;Humidity;BMP_temperature;BMP_pressure;BME280_temperature;BME280_humidity;BME280_pressure;Samples;Min_cycle;Max_cycle;Signal;HPM_P1;HPM_P2
2022/07/14 00:00:28;;;;;;;;;;;26.10;36.10;;;;;;1567017;74;1191;-68
2022/07/14 00:02:30;;;;;;;;;;;26.10;36.10;;;;;;1577540;74;758;-68
2022/07/14 00:04:32;;;;;;;;;;;26.10;36.10;;;;;;1566614;74;804;-67
2022/07/14 00:06:34;;;;;;;;;;;26.10;36.10;;;;;;1560867;74;756;-65
2022/07/14 00:08:36;;;;;;;;;;;26.10;36.10;;;;;;1575965;74;1923;-69
2022/07/14 00:10:37;;;;;;;;;;;26.10;36.00;;;;;;1577390;74;1160;-70
2022/07/14 00:12:39;;;;;;;;;;;26.10;36.00;;;;;;1566685;74;705;-68
2022/07/14 00:14:41;;;;;;;;;;;26.10;36.00;;;;;;1571955;74;697;-69
2022/07/14 00:16:43;;;;;;;;;;;26.10;36.10;;;;;;1565355;74;721;-68
2022/07/14 00:18:45;;;;;;;;;;;26.10;36.10;;;;;;1565234;74;695;-69
2022/07/14 00:20:47;;;;;;;;;;;26.10;36.10;;;;;;1573004;74;1139;-69
2022/07/14 00:22:49;;;;;;;;;;;26.00;36.10;;;;;;1565513;74;632;-68
2022/07/14 00:24:50;;;;;;;;;;;26.00;36.20;;;;;;1565169;74;828;-70
2022/07/14 00:26:53;;;;;;;;;;;26.00;36.20;;;;;;1569484;74;788;-69
2022/07/14 00:28:55;;;;;;;;;;;26.00;36.20;;;;;;1572113;74;1919;-71
2022/07/14 00:30:58;;;;;;;;;;;26.00;36.20;;;;;;1569873;74;1137;-69
2022/07/14 00:32:59;;;;;;;;;;;26.10;36.20;;;;;;1563389;74;780;-69
2022/07/14 00:35:01;;;;;;;;;;;26.00;36.20;;;;;;1555094;74;696;-70
2022/07/14 00:37:03;;;;;;;;;;;26.00;36.30;;;;;;1578274;74;867;-70
2022/07/14 00:39:05;;;;;;;;;;;26.10;36.30;;;;;;1570436;74;720;-68
2022/07/14 00:41:07;;;;;;;;;;;26.10;36.30;;;;;;1573816;74;1631;-68
2022/07/14 00:43:09;;;;;;;;;;;26.10;36.30;;;;;;1560290;74;718;-69
2022/07/14 00:45:12;;;;;;;;;;;26.10;36.30;;;;;;1564041;74;735;-69
2022/07/14 00:47:13;;;;;;;;;;;26.00;36.30;;;;;;1565728;74;1947;-68
2022/07/14 00:49:17;;;;;;;;;;;26.00;36.40;;;;;;1565336;74;764;-69
2022/07/14 00:51:19;;;;;;;;;;;26.10;36.50;;;;;;1567479;74;1947;-69
2022/07/14 00:53:21;;;;;;;;;;;26.00;36.50;;;;;;1560267;74;829;-70
2022/07/14 00:55:23;;;;;;;;;;;26.10;36.50;;;;;;1562885;74;678;-68
2022/07/14 00:57:24;;;;;;;;;;;26.10;36.50;;;;;;1565497;74;697;-68
2022/07/14 00:59:27;;;;;;;;;;;26.10;36.50;;;;;;1581224;74;668;-69
2022/07/14 01:01:31;;;;;;;;;;;26.10;36.40;;;;;;1575054;74;1191;-67
2022/07/14 01:03:33;;;;;;;;;;;26.00;36.30;;;;;;1569551;74;702;-70
2022/07/14 01:05:35;;;;;;;;;;;26.00;36.30;;;;;;1569643;74;722;-67
2022/07/14 01:07:37;;;;;;;;;;;26.00;36.30;;;;;;1555656;74;1934;-68
2022/07/14 01:09:39;;;;;;;;;;;26.00;36.30;;;;;;1567300;74;728;-68
2022/07/14 01:11:41;;;;;;;;;;;26.00;36.30;;;;;;1573915;74;1145;-65
2022/07/14 01:13:45;;;;;;;;;;;26.00;36.20;;;;;;1562789;74;719;-68
2022/07/14 01:15:47;;;;;;;;;;;26.00;36.20;;;;;;1566973;74;687;-70
2022/07/14 01:17:48;;;;;;;;;;;26.00;36.30;;;;;;1572609;74;969;-68
2022/07/14 01:19:50;;;;;;;;;;;26.00;36.30;;;;;;1570205;74;782;-69
2022/07/14 01:21:54;;;;;;;;;;;26.00;36.30;;;;;;1557003;74;1137;-68
2022/07/14 01:23:56;;;;;;;;;;;26.00;36.30;;;;;;1567925;74;1341;-68
2022/07/14 01:25:58;;;;;;;;;;;26.00;36.30;;;;;;1568788;74;673;-69
2022/07/14 01:28:00;;;;;;;;;;;26.00;36.40;;;;;;1567376;74;1938;-68
2022/07/14 01:30:02;;;;;;;;;;;26.10;36.30;;;;;;1565612;75;720;-69
2022/07/14 01:32:04;;;;;;;;;;;26.10;36.30;;;;;;1561243;74;2063;-67
2022/07/14 01:34:05;;;;;;;;;;;26.10;36.30;;;;;;1588537;74;724;-68
2022/07/14 01:36:07;;;;;;;;;;;26.00;36.30;;;;;;1578280;74;711;-68
2022/07/14 01:38:09;;;;;;;;;;;26.00;36.30;;;;;;1572109;74;1523;-69
2022/07/14 01:40:11;;;;;;;;;;;26.00;36.20;;;;;;1574240;74;777;-69
2022/07/14 01:42:13;;;;;;;;;;;26.00;36.20;;;;;;1574384;74;1211;-69
2022/07/14 01:44:15;;;;;;;;;;;26.00;36.20;;;;;;1577594;74;832;-67
2022/07/14 01:46:17;;;;;;;;;;;26.00;36.20;;;;;;1576156;74;779;-67
2022/07/14 01:48:19;;;;;;;;;;;26.00;36.30;;;;;;1589602;74;1903;-67
2022/07/14 01:50:21;;;;;;;;;;;26.00;36.30;;;;;;1578290;74;707;-66
2022/07/14 01:52:23;;;;;;;;;;;26.10;36.30;;;;;;1575998;74;1131;-67
2022/07/14 01:54:25;;;;;;;;;;;26.10;36.30;;;;;;1586000;73;707;-67
2022/07/14 01:56:27;;;;;;;;;;;26.00;36.20;;;;;;1567709;74;732;-66
2022/07/14 01:58:29;;;;;;;;;;;26.00;36.30;;;;;;1577291;74;695;-67
2022/07/14 02:00:30;;;;;;;;;;;26.10;36.30;;;;;;1585294;74;688;-67
2022/07/14 02:02:32;;;;;;;;;;;26.00;36.30;;;;;;1575916;74;1190;-68
2022/07/14 02:04:34;;;;;;;;;;;26.00;36.30;;;;;;1583945;74;728;-66
2022/07/14 02:06:38;;;;;;;;;;;26.00;36.30;;;;;;1593751;74;556;-66
2022/07/14 02:08:40;;;;;;;;;;;26.00;36.30;;;;;;1587118;74;1938;-67
2022/07/14 02:13:01;;;;;;;;;;;26.00;36.30;;;;;;1573343;74;1687;-67
2022/07/14 02:15:04;;;;;;;;;;;26.00;36.30;;;;;;1569834;74;807;-67
2022/07/14 02:17:05;;;;;;;;;;;26.00;36.40;;;;;;1577604;74;719;-67
2022/07/14 02:19:07;;;;;;;;;;;26.00;36.40;;;;;;1579945;74;719;-67
2022/07/14 02:21:09;;;;;;;;;;;26.00;36.40;;;;;;1581212;74;1120;-66
2022/07/14 02:23:11;;;;;;;;;;;26.00;36.40;;;;;;1580420;74;738;-67
2022/07/14 02:25:13;;;;;;;;;;;26.00;36.40;;;;;;1581598;74;714;-65
2022/07/14 02:27:15;;;;;;;;;;;26.00;36.50;;;;;;1581121;74;767;-67
2022/07/14 02:29:17;;;;;;;;;;;26.00;36.40;;;;;;1583351;74;1922;-67
2022/07/14 02:31:19;;;;;;;;;;;26.00;36.50;;;;;;1586062;73;1150;-66
2022/07/14 02:33:21;;;;;;;;;;;26.00;36.50;;;;;;1571353;74;703;-68
2022/07/14 02:35:23;;;;;;;;;;;26.00;36.50;;;;;;1564651;74;1566;-67
2022/07/14 02:37:25;;;;;;;;;;;26.00;36.50;;;;;;1576017;74;690;-67
2022/07/14 02:39:26;;;;;;;;;;;25.90;35.90;;;;;;1580741;74;683;-67
2022/07/14 02:41:28;;;;;;;;;;;25.90;36.00;;;;;;1574949;74;1156;-67
2022/07/14 02:43:31;;;;;;;;;;;25.90;36.00;;;;;;1573731;74;588;-67
2022/07/14 02:45:33;;;;;;;;;;;26.00;36.60;;;;;;1574488;74;743;-67
2022/07/14 02:47:35;;;;;;;;;;;25.90;36.00;;;;;;1571593;74;690;-66
2022/07/14 02:49:37;;;;;;;;;;;26.00;36.60;;;;;;1572228;74;1944;-67
2022/07/14 02:51:38;;;;;;;;;;;26.00;36.60;;;;;;1572322;74;1138;-68
2022/07/14 02:53:40;;;;;;;;;;;26.00;36.60;;;;;;1574752;74;814;-68
2022/07/14 02:55:43;;;;;;;;;;;26.00;36.70;;;;;;1571958;74;772;-68
2022/07/14 02:57:45;;;;;;;;;;;25.90;36.10;;;;;;1584535;74;760;-69
2022/07/14 02:59:46;;;;;;;;;;;25.90;36.20;;;;;;1577392;74;708;-69
2022/07/14 03:01:48;;;;;;;;;;;26.00;36.80;;;;;;1583712;73;1191;-69
2022/07/14 03:03:50;;;;;;;;;;;26.00;36.80;;;;;;1572674;74;707;-67
2022/07/14 03:05:52;;;;;;;;;;;25.90;36.20;;;;;;1573758;74;697;-69
2022/07/14 03:07:54;;;;;;;;;;;26.00;36.70;;;;;;1572194;74;803;-68
2022/07/14 03:09:56;;;;;;;;;;;26.00;36.80;;;;;;1580193;74;1955;-68
2022/07/14 03:11:58;;;;;;;;;;;25.90;36.30;;;;;;1573746;74;1160;-68
2022/07/14 03:14:00;;;;;;;;;;;26.00;36.90;;;;;;1580457;74;713;-68
2022/07/14 03:16:02;;;;;;;;;;;26.00;36.80;;;;;;1584466;74;690;-67
2022/07/14 03:18:04;;;;;;;;;;;26.00;36.80;;;;;;1581532;74;723;-67
2022/07/14 03:20:06;;;;;;;;;;;26.00;36.90;;;;;;1572204;74;752;-66
2022/07/14 03:22:08;;;;;;;;;;;26.00;36.80;;;;;;1579834;74;1138;-67
2022/07/14 03:24:10;;;;;;;;;;;26.00;36.90;;;;;;1568462;74;699;-68
2022/07/14 03:26:12;;;;;;;;;;;26.00;36.90;;;;;;1575814;74;719;-66
2022/07/14 03:28:14;;;;;;;;;;;26.00;36.90;;;;;;1573318;74;1942;-67
2022/07/14 03:30:16;;;;;;;;;;;26.00;37.00;;;;;;1576089;74;1465;-67
2022/07/14 03:32:17;;;;;;;;;;;26.00;36.90;;;;;;1572119;74;1118;-68
2022/07/14 03:34:19;;;;;;;;;;;26.00;36.90;;;;;;1573034;74;708;-67
2022/07/14 03:36:21;;;;;;;;;;;26.00;37.00;;;;;;1580226;74;744;-66
2022/07/14 03:38:23;;;;;;;;;;;25.90;36.40;;;;;;1580161;74;734;-66
2022/07/14 03:40:25;;;;;;;;;;;25.90;36.40;;;;;;1579386;74;718;-67
2022/07/14 03:42:28;;;;;;;;;;;25.90;36.50;;;;;;1568024;74;1109;-67
2022/07/14 03:44:30;;;;;;;;;;;25.90;36.50;;;;;;1578195;73;803;-68
2022/07/14 03:46:31;;;;;;;;;;;26.00;37.10;;;;;;1573181;74;719;-67
2022/07/14 03:48:34;;;;;;;;;;;26.00;37.10;;;;;;1581459;74;1941;-66
2022/07/14 03:50:36;;;;;;;;;;;25.90;36.60;;;;;;1567978;74;710;-66
2022/07/14 03:52:38;;;;;;;;;;;26.00;37.10;;;;;;1584809;74;805;-67
2022/07/14 03:54:41;;;;;;;;;;;25.90;36.50;;;;;;1580339;74;711;-67
2022/07/14 03:56:43;;;;;;;;;;;25.90;36.60;;;;;;1574506;74;1987;-68
2022/07/14 03:58:45;;;;;;;;;;;26.00;37.10;;;;;;1573739;74;675;-67
2022/07/14 04:00:47;;;;;;;;;;;25.90;36.60;;;;;;1588541;74;1163;-67
2022/07/14 04:02:49;;;;;;;;;;;26.00;37.20;;;;;;1574658;74;1051;-66
2022/07/14 04:04:51;;;;;;;;;;;26.00;37.10;;;;;;1573603;74;787;-65
2022/07/14 04:06:53;;;;;;;;;;;25.90;36.60;;;;;;1583407;74;659;-66
2022/07/14 04:08:55;;;;;;;;;;;26.00;37.20;;;;;;1583947;74;1934;-67
2022/07/14 04:10:57;;;;;;;;;;;26.00;37.20;;;;;;1583352;73;1200;-68
2022/07/14 04:12:59;;;;;;;;;;;26.00;37.20;;;;;;1583318;74;872;-68
2022/07/14 04:15:01;;;;;;;;;;;26.00;37.10;;;;;;1580662;74;724;-68
2022/07/14 04:17:02;;;;;;;;;;;26.00;37.10;;;;;;1587199;74;821;-66
2022/07/14 04:19:06;;;;;;;;;;;25.90;36.60;;;;;;1572785;74;872;-67
2022/07/14 04:21:13;;;;;;;;;;;25.90;36.60;;;;;;1574861;74;1152;-67
2022/07/14 04:23:12;;;;;;;;;;;25.90;36.60;;;;;;1580559;74;1195;-69
2022/07/14 04:25:14;;;;;;;;;;;25.90;36.80;;;;;;1567335;74;731;-68
2022/07/14 04:27:16;;;;;;;;;;;25.90;36.80;;;;;;1565283;74;1365;-67
2022/07/14 04:29:18;;;;;;;;;;;26.00;37.40;;;;;;1569103;74;1918;-67
2022/07/14 04:31:20;;;;;;;;;;;26.00;37.30;;;;;;1577879;74;1241;-66
2022/07/14 04:33:22;;;;;;;;;;;26.00;37.30;;;;;;1565800;74;769;-67
2022/07/14 04:35:24;;;;;;;;;;;26.00;37.30;;;;;;1581196;74;707;-66
2022/07/14 04:37:26;;;;;;;;;;;26.00;37.30;;;;;;1570574;74;683;-67
2022/07/14 04:39:28;;;;;;;;;;;26.00;37.40;;;;;;1573591;74;764;-67
2022/07/14 04:41:30;;;;;;;;;;;26.00;37.40;;;;;;1575130;74;1184;-66
2022/07/14 04:43:32;;;;;;;;;;;26.00;37.40;;;;;;1569231;74;662;-67
2022/07/14 04:45:34;;;;;;;;;;;25.90;36.80;;;;;;1570409;74;776;-66
2022/07/14 04:47:36;;;;;;;;;;;26.00;37.40;;;;;;1568926;74;743;-67
2022/07/14 04:52:04;;;;;;;;;;;26.00;37.50;;;;;;1575566;73;1660;-66
2022/07/14 04:54:06;;;;;;;;;;;26.00;37.40;;;;;;1571868;74;651;-67
2022/07/14 04:56:08;;;;;;;;;;;25.90;36.90;;;;;;1563703;74;697;-66
2022/07/14 04:58:10;;;;;;;;;;;26.00;37.60;;;;;;1563589;74;768;-67
2022/07/14 05:00:12;;;;;;;;;;;25.90;37.00;;;;;;1570673;74;756;-65
2022/07/14 05:02:14;;;;;;;;;;;26.00;37.60;;;;;;1565605;74;1148;-63
2022/07/14 05:04:16;;;;;;;;;;;26.00;37.60;;;;;;1572935;74;738;-68
2022/07/14 05:06:18;;;;;;;;;;;26.00;37.50;;;;;;1573201;74;716;-63
2022/07/14 05:08:21;;;;;;;;;;;26.00;37.60;;;;;;1569879;74;767;-65
2022/07/14 05:10:23;;;;;;;;;;;26.00;37.70;;;;;;1589682;74;1921;-66
2022/07/14 05:12:26;;;;;;;;;;;25.90;37.20;;;;;;1580561;74;1172;-65
2022/07/14 05:14:29;;;;;;;;;;;25.90;37.30;;;;;;1579340;74;818;-64
2022/07/14 05:16:31;;;;;;;;;;;25.90;37.30;;;;;;1574098;74;778;-64
2022/07/14 05:18:33;;;;;;;;;;;25.90;37.40;;;;;;1559635;74;813;-66
2022/07/14 05:20:35;;;;;;;;;;;25.90;37.40;;;;;;1567353;74;1125;-64
2022/07/14 05:22:37;;;;;;;;;;;25.80;37.50;;;;;;1569435;74;1584;-64
2022/07/14 05:24:39;;;;;;;;;;;25.90;37.50;;;;;;1560300;74;684;-65
2022/07/14 05:26:41;;;;;;;;;;;25.80;37.60;;;;;;1570691;74;701;-65
2022/07/14 05:28:43;;;;;;;;;;;25.80;37.60;;;;;;1567728;74;809;-64
2022/07/14 05:30:44;;;;;;;;;;;25.80;37.60;;;;;;1564574;74;2119;-67
2022/07/14 05:32:46;;;;;;;;;;;25.80;37.60;;;;;;1584516;74;821;-61
2022/07/14 05:34:49;;;;;;;;;;;25.80;37.60;;;;;;1568987;74;768;-65
2022/07/14 05:36:51;;;;;;;;;;;25.80;37.60;;;;;;1579135;74;730;-64
2022/07/14 05:38:53;;;;;;;;;;;25.80;37.60;;;;;;1583804;74;789;-63
2022/07/14 05:40:55;;;;;;;;;;;25.70;37.60;;;;;;1579037;74;1184;-64
2022/07/14 05:42:56;;;;;;;;;;;25.70;37.50;;;;;;1581667;74;692;-67
2022/07/14 05:44:58;;;;;;;;;;;25.80;37.50;;;;;;1570102;74;657;-65
2022/07/14 05:47:00;;;;;;;;;;;25.70;37.50;;;;;;1574069;74;675;-65
2022/07/14 05:49:02;;;;;;;;;;;25.70;37.50;;;;;;1578965;74;576;-65
2022/07/14 05:51:05;;;;;;;;;;;25.70;37.50;;;;;;1564865;74;1164;-66
2022/07/14 05:53:07;;;;;;;;;;;25.70;37.50;;;;;;1579853;74;729;-64
2022/07/14 05:55:09;;;;;;;;;;;25.70;37.50;;;;;;1575420;74;629;-67
2022/07/14 05:57:13;;;;;;;;;;;25.70;37.50;;;;;;1583416;74;679;-66
2022/07/14 05:59:15;;;;;;;;;;;25.70;37.50;;;;;;1575337;74;717;-65
2022/07/14 06:01:18;;;;;;;;;;;25.70;37.50;;;;;;1586101;74;1151;-65
2022/07/14 06:03:20;;;;;;;;;;;25.70;37.50;;;;;;1578811;74;768;-64
2022/07/14 06:05:22;;;;;;;;;;;25.60;37.50;;;;;;1575147;74;749;-64
2022/07/14 06:07:24;;;;;;;;;;;25.60;37.50;;;;;;1585146;74;646;-68
2022/07/14 06:09:26;;;;;;;;;;;25.70;37.60;;;;;;1579545;74;1931;-66
2022/07/14 06:11:27;;;;;;;;;;;25.60;37.50;;;;;;1584602;74;1180;-65
2022/07/14 06:13:30;;;;;;;;;;;25.60;37.60;;;;;;1580356;74;773;-64
2022/07/14 06:15:31;;;;;;;;;;;25.60;37.60;;;;;;1574609;74;777;-66
2022/07/14 06:17:34;;;;;;;;;;;25.70;37.80;;;;;;1582586;74;739;-66
2022/07/14 06:19:36;;;;;;;;;;;25.80;37.90;;;;;;1571984;74;1540;-66
2022/07/14 06:21:38;;;;;;;;;;;26.00;38.30;;;;;;1578608;74;1179;-67
2022/07/14 06:23:40;;;;;;;;;;;26.10;38.10;;;;;;1585110;74;755;-66
2022/07/14 06:25:42;;;;;;;;;;;26.10;37.80;;;;;;1573002;74;790;-66
2022/07/14 06:27:43;;;;;;;;;;;26.20;37.80;;;;;;1578599;74;621;-67
2022/07/14 06:29:45;;;;;;;;;;;26.40;37.60;;;;;;1578948;74;1937;-66
2022/07/14 06:31:49;;;;;;;;;;;26.40;37.50;;;;;;1573045;74;1089;-68
2022/07/14 06:33:51;;;;;;;;;;;26.50;37.30;;;;;;1571939;74;945;-67
2022/07/14 06:35:52;;;;;;;;;;;26.40;36.50;;;;;;1570300;74;764;-67
2022/07/14 06:37:54;;;;;;;;;;;26.50;36.90;;;;;;1579722;74;695;-67
2022/07/14 06:39:56;;;;;;;;;;;26.50;36.80;;;;;;1579104;74;695;-67
2022/07/14 06:41:58;;;;;;;;;;;26.60;36.70;;;;;;1577773;74;1167;-67
2022/07/14 06:44:00;;;;;;;;;;;26.60;36.60;;;;;;1537064;75;586;-66
2022/07/14 06:46:02;;;;;;;;;;;26.50;36.70;;;;;;1572204;74;754;-62
2022/07/14 06:48:05;;;;;;;;;;;26.60;36.50;;;;;;1577195;74;713;-68
2022/07/14 06:50:07;;;;;;;;;;;26.70;36.50;;;;;;1572231;74;1930;-65
2022/07/14 06:52:09;;;;;;;;;;;26.70;36.50;;;;;;1570892;74;1301;-67
2022/07/14 06:54:11;;;;;;;;;;;26.50;36.70;;;;;;1573745;74;753;-66
2022/07/14 06:56:12;;;;;;;;;;;26.70;36.50;;;;;;1579802;73;714;-65
2022/07/14 06:58:15;;;;;;;;;;;26.60;36.60;;;;;;1571019;74;573;-65
2022/07/14 07:00:18;;;;;;;;;;;26.60;36.60;;;;;;1569167;74;782;-64
2022/07/14 07:02:19;;;;;;;;;;;26.60;36.60;;;;;;1581218;74;1213;-66
2022/07/14 07:04:23;;;;;;;;;;;26.50;36.70;;;;;;1558661;74;768;-65
2022/07/14 07:08:44;;;;;;;;;;;26.50;36.80;;;;;;1575855;74;1654;-65
2022/07/14 07:10:46;;;;;;;;;;;26.50;37.10;;;;;;1572196;74;1926;-67
2022/07/14 07:12:48;;;;;;;;;;;26.50;37.20;;;;;;1579471;74;795;-65
2022/07/14 07:14:50;;;;;;;;;;;26.50;37.20;;;;;;1583441;74;1481;-64
2022/07/14 07:16:52;;;;;;;;;;;26.50;37.30;;;;;;1577454;73;696;-65
2022/07/14 07:18:54;;;;;;;;;;;26.60;37.20;;;;;;1583923;73;824;-66
2022/07/14 07:20:57;;;;;;;;;;;26.70;37.20;;;;;;1587020;74;1172;-66
2022/07/14 07:22:58;;;;;;;;;;;26.80;37.10;;;;;;1574578;74;666;-66
2022/07/14 07:25:00;;;;;;;;;;;26.80;36.90;;;;;;1583313;74;789;-65
2022/07/14 07:27:02;;;;;;;;;;;26.80;36.70;;;;;;1572651;74;777;-65
2022/07/14 07:29:04;;;;;;;;;;;26.90;36.70;;;;;;1574834;74;756;-67
2022/07/14 07:33:10;;;;;;;;;;;26.90;36.60;;;;;;1547865;72;663;-69
2022/07/14 07:35:12;;;;;;;;;;;26.90;36.60;;;;;;1547628;75;661;-66
2022/07/14 07:37:14;;;;;;;;;;;26.90;36.60;;;;;;1557366;75;656;-66
2022/07/14 07:39:16;;;;;;;;;;;26.90;36.50;;;;;;1551775;75;706;-67
2022/07/14 07:41:17;;;;;;;;;;;27.00;37.20;;;;;;1548595;74;1197;-67
2022/07/14 07:43:24;;;;;;;;;;;27.00;37.20;;;;;;1524825;77;740;-67
2022/07/14 07:45:23;;;;;;;;;;;27.10;37.10;;;;;;1536718;77;1278;-69
2022/07/14 07:47:25;;;;;;;;;;;27.10;37.00;;;;;;1564526;75;737;-69
2022/07/14 07:49:27;;;;;;;;;;;27.10;37.00;;;;;;1556751;75;777;-67
2022/07/14 07:51:29;;;;;;;;;;;27.20;36.90;;;;;;1556259;75;1941;-68
2022/07/14 07:53:31;;;;;;;;;;;27.10;37.10;;;;;;1556810;75;719;-66
2022/07/14 07:55:33;;;;;;;;;;;27.20;36.80;;;;;;1559733;75;954;-67
2022/07/14 07:57:35;;;;;;;;;;;27.20;36.90;;;;;;1563245;75;722;-68
2022/07/14 07:59:37;;;;;;;;;;;27.30;36.90;;;;;;1556320;75;652;-66
2022/07/14 08:01:38;;;;;;;;;;;27.30;36.90;;;;;;1548803;75;1140;-65
2022/07/14 08:03:40;;;;;;;;;;;27.30;36.80;;;;;;1554040;75;735;-69
2022/07/14 08:05:42;;;;;;;;;;;27.40;36.60;;;;;;1558791;75;657;-65
2022/07/14 08:07:44;;;;;;;;;;;27.40;36.50;;;;;;1569760;75;770;-66
2022/07/14 08:09:46;;;;;;;;;;;27.50;36.40;;;;;;1560458;75;772;-66
2022/07/14 08:11:48;;;;;;;;;;;27.50;36.40;;;;;;1558169;75;1909;-67
2022/07/14 08:13:50;;;;;;;;;;;27.40;36.40;;;;;;1558886;75;755;-67
2022/07/14 08:15:52;;;;;;;;;;;27.50;36.30;;;;;;1562938;75;709;-65
2022/07/14 08:17:54;;;;;;;;;;;27.50;36.00;;;;;;1562494;75;679;-68
2022/07/14 08:19:56;;;;;;;;;;;27.50;36.30;;;;;;1559137;75;706;-70
2022/07/14 08:21:58;;;;;;;;;;;27.50;36.30;;;;;;1561776;75;1149;-66
2022/07/14 08:23:59;;;;;;;;;;;27.50;36.20;;;;;;1551612;75;762;-66
2022/07/14 08:26:01;;;;;;;;;;;27.60;36.00;;;;;;1571824;75;722;-67
2022/07/14 08:28:03;;;;;;;;;;;27.60;35.80;;;;;;1551897;75;765;-66
2022/07/14 08:30:06;;;;;;;;;;;27.60;35.80;;;;;;1567165;75;1913;-67
2022/07/14 08:32:08;;;;;;;;;;;27.60;35.70;;;;;;1548832;75;1148;-66
2022/07/14 08:34:11;;;;;;;;;;;27.60;35.70;;;;;;1555824;75;595;-65
2022/07/14 08:36:14;;;;;;;;;;;27.60;35.60;;;;;;1548497;75;660;-68
2022/07/14 08:38:16;;;;;;;;;;;27.60;35.80;;;;;;1559806;75;727;-66
2022/07/14 08:40:19;;;;;;;;;;;27.50;36.20;;;;;;1550179;75;800;-67
2022/07/14 08:42:22;;;;;;;;;;;27.50;36.10;;;;;;1557568;75;1169;-69
2022/07/14 08:44:25;;;;;;;;;;;27.60;36.00;;;;;;1550544;75;751;-66
2022/07/14 08:46:27;;;;;;;;;;;27.70;35.70;;;;;;1552285;75;796;-67
2022/07/14 08:48:29;;;;;;;;;;;27.70;35.70;;;;;;1557493;75;745;-65
2022/07/14 08:50:31;;;;;;;;;;;27.70;35.60;;;;;;1556515;75;1928;-65
2022/07/14 08:52:33;;;;;;;;;;;27.80;35.50;;;;;;1557563;75;1090;-65
2022/07/14 08:54:36;;;;;;;;;;;27.70;35.40;;;;;;1551822;74;680;-64
2022/07/14 08:56:39;;;;;;;;;;;27.80;35.20;;;;;;1564507;75;736;-65
2022/07/14 08:58:41;;;;;;;;;;;27.70;35.20;;;;;;1523112;77;750;-65
2022/07/14 09:00:43;;;;;;;;;;;27.70;35.20;;;;;;1548711;75;686;-67
2022/07/14 09:02:49;;;;;;;;;;;27.80;35.20;;;;;;1556075;75;1132;-66
2022/07/14 09:04:51;;;;;;;;;;;27.80;35.20;;;;;;1547108;75;970;-65
2022/07/14 09:06:53;;;;;;;;;;;27.70;34.70;;;;;;1544059;75;726;-67
2022/07/14 09:08:56;;;;;;;;;;;27.70;35.10;;;;;;1555469;75;1570;-65
2022/07/14 09:10:58;;;;;;;;;;;27.70;35.00;;;;;;1565048;75;1935;-66
2022/07/14 09:13:09;;;;;;;;;;;27.70;35.00;;;;;;1553269;75;725;-66
2022/07/14 09:17:31;;;;;;;;;;;27.70;35.00;;;;;;1564073;75;1631;-63
2022/07/14 09:19:33;;;;;;;;;;;27.70;34.80;;;;;;1563264;75;733;-63
2022/07/14 09:21:35;;;;;;;;;;;27.70;34.60;;;;;;1557818;74;1104;-65
2022/07/14 09:23:37;;;;;;;;;;;27.70;34.10;;;;;;1551251;75;738;-63
2022/07/14 09:25:39;;;;;;;;;;;27.60;34.40;;;;;;1525713;76;685;-64
2022/07/14 09:27:41;;;;;;;;;;;27.60;34.10;;;;;;1546590;75;747;-66
2022/07/14 09:29:43;;;;;;;;;;;27.60;33.90;;;;;;1554804;75;677;-65
2022/07/14 09:31:45;;;;;;;;;;;27.70;33.80;;;;;;1556502;75;1951;-63
2022/07/14 09:33:47;;;;;;;;;;;27.50;33.80;;;;;;1557287;75;790;-66
2022/07/14 09:35:49;;;;;;;;;;;27.60;33.70;;;;;;1547421;75;736;-63
2022/07/14 09:37:51;;;;;;;;;;;27.50;33.80;;;;;;1550837;75;701;-67
2022/07/14 09:39:56;;;;;;;;;;;27.50;33.60;;;;;;1567420;74;734;-64
2022/07/14 09:42:00;;;;;;;;;;;27.50;33.50;;;;;;1538609;75;1167;-64
2022/07/14 09:44:16;;;;;;;;;;;27.50;33.60;;;;;;1543384;75;734;-63
2022/07/14 09:46:20;;;;;;;;;;;27.50;33.50;;;;;;1548390;75;856;-63
2022/07/14 09:48:22;;;;;;;;;;;27.50;33.00;;;;;;1502850;77;1409;-66
2022/07/14 09:50:34;;;;;;;;;;;27.40;33.50;;;;;;1541576;75;727;-65
2022/07/14 09:52:37;;;;;;;;;;;27.40;33.40;;;;;;1548577;75;1083;-61
2022/07/14 09:54:46;;;;;;;;;;;27.50;32.80;;;;;;1536965;77;844;-65
2022/07/14 09:56:50;;;;;;;;;;;27.40;32.10;;;;;;1527940;77;711;-68
2022/07/14 09:58:55;;;;;;;;;;;27.40;32.50;;;;;;1548353;75;1566;-69
2022/07/14 10:00:57;;;;;;;;;;;27.30;33.00;;;;;;1548080;75;646;-67
2022/07/14 10:02:59;;;;;;;;;;;27.40;32.90;;;;;;1547540;75;833;-65
2022/07/14 10:05:07;;;;;;;;;;;27.40;32.40;;;;;;1542811;75;1675;-67
2022/07/14 10:07:08;;;;;;;;;;;27.40;31.80;;;;;;1549686;75;1505;-68
2022/07/14 10:09:10;;;;;;;;;;;27.40;32.50;;;;;;1548920;75;815;-64
2022/07/14 10:11:12;;;;;;;;;;;27.40;32.80;;;;;;1552269;76;1926;-65
2022/07/14 10:13:13;;;;;;;;;;;27.30;32.60;;;;;;1542242;76;839;-64
2022/07/14 10:15:15;;;;;;;;;;;27.30;32.00;;;;;;1520580;77;836;-62
2022/07/14 10:17:17;;;;;;;;;;;27.30;32.20;;;;;;1558357;75;627;-65
2022/07/14 10:19:19;;;;;;;;;;;27.30;31.50;;;;;;1564878;75;725;-66
2022/07/14 10:21:21;;;;;;;;;;;27.20;32.10;;;;;;1540764;75;1095;-67
2022/07/14 10:23:23;;;;;;;;;;;27.30;31.80;;;;;;1547659;75;731;-64
2022/07/14 10:25:25;;;;;;;;;;;27.20;32.10;;;;;;1557035;75;840;-66
2022/07/14 10:27:27;;;;;;;;;;;27.30;32.60;;;;;;1552838;75;709;-65
2022/07/14 10:29:29;;;;;;;;;;;27.20;32.30;;;;;;1548282;75;794;-64
2022/07/14 10:31:41;;;;;;;;;;;27.20;32.40;;;;;;1541872;76;1934;-65
2022/07/14 10:33:47;;;;;;;;;;;27.20;32.20;;;;;;1551432;75;1612;-65
2022/07/14 10:35:51;;;;;;;;;;;27.20;32.50;;;;;;1546080;75;773;-65
2022/07/14 10:38:11;;;;;;;;;;;27.20;32.20;;;;;;1548275;75;705;-65
2022/07/14 10:40:14;;;;;;;;;;;27.20;32.00;;;;;;1552458;76;767;-63
2022/07/14 10:42:36;;;;;;;;;;;27.10;31.80;;;;;;1547784;75;1116;-64
2022/07/14 10:44:40;;;;;;;;;;;27.10;30.00;;;;;;1538108;76;722;-76
2022/07/14 10:46:43;;;;;;;;;;;27.00;30.80;;;;;;1540657;76;753;-63
2022/07/14 10:48:45;;;;;;;;;;;27.00;29.90;;;;;;1550553;76;807;-65
2022/07/14 10:50:47;;;;;;;;;;;26.90;30.00;;;;;;1509283;77;1045;-63
2022/07/14 10:52:56;;;;;;;;;;;26.90;29.90;;;;;;1550434;74;1935;-65
2022/07/14 10:55:16;;;;;;;;;;;26.90;28.60;;;;;;1547594;76;710;-64
2022/07/14 10:57:18;;;;;;;;;;;26.90;29.20;;;;;;1545170;75;780;-64
2022/07/14 10:59:28;;;;;;;;;;;26.90;29.50;;;;;;1550796;76;800;-63
2022/07/14 11:01:29;;;;;;;;;;;26.90;29.40;;;;;;1538880;76;1569;-64
2022/07/14 11:03:39;;;;;;;;;;;26.90;29.70;;;;;;1550177;75;687;-64
2022/07/14 11:05:42;;;;;;;;;;;26.90;30.20;;;;;;1549100;76;707;-65
2022/07/14 11:08:03;;;;;;;;;;;26.90;29.20;;;;;;1517597;76;1251;-64
2022/07/14 11:10:06;;;;;;;;;;;26.90;29.50;;;;;;1540997;75;737;-65
2022/07/14 11:12:10;;;;;;;;;;;26.90;29.40;;;;;;1525190;76;1941;-64
2022/07/14 11:14:16;;;;;;;;;;;26.90;28.60;;;;;;1534137;75;1032;-67
2022/07/14 11:16:15;;;;;;;;;;;26.90;28.90;;;;;;1543564;76;958;-64
2022/07/14 11:18:21;;;;;;;;;;;26.90;29.30;;;;;;1556986;75;720;-64
2022/07/14 11:20:25;;;;;;;;;;;26.90;29.70;;;;;;1551890;75;793;-64
2022/07/14 11:22:26;;;;;;;;;;;26.80;28.90;;;;;;1549190;76;1680;-64
2022/07/14 11:24:32;;;;;;;;;;;26.80;29.50;;;;;;1541312;76;736;-65
2022/07/14 11:26:37;;;;;;;;;;;26.80;29.90;;;;;;1546040;75;725;-63
2022/07/14 11:28:46;;;;;;;;;;;26.70;30.00;;;;;;1546310;76;795;-64
2022/07/14 11:30:50;;;;;;;;;;;26.80;30.20;;;;;;1547123;76;1063;-64
2022/07/14 11:32:58;;;;;;;;;;;26.80;29.50;;;;;;1542076;76;1953;-65
2022/07/14 11:37:20;;;;;;;;;;;26.70;29.20;;;;;;1538336;75;1631;-64
2022/07/14 11:39:23;;;;;;;;;;;26.70;28.70;;;;;;1547822;76;824;-65
2022/07/14 11:41:27;;;;;;;;;;;26.80;29.40;;;;;;1547704;76;1170;-64
2022/07/14 11:43:30;;;;;;;;;;;26.80;29.20;;;;;;1540250;75;1876;-64
2022/07/14 11:45:51;;;;;;;;;;;26.80;29.10;;;;;;1548869;75;697;-64
2022/07/14 11:47:53;;;;;;;;;;;26.80;29.00;;;;;;1545255;75;784;-63
2022/07/14 11:49:56;;;;;;;;;;;26.80;29.20;;;;;;1544921;75;818;-64
2022/07/14 11:51:58;;;;;;;;;;;26.70;28.00;;;;;;1545003;75;1943;-65
2022/07/14 11:54:01;;;;;;;;;;;26.70;28.30;;;;;;1548281;75;751;-67
2022/07/14 11:56:03;;;;;;;;;;;26.70;29.20;;;;;;1550718;75;1526;-67
2022/07/14 11:58:05;;;;;;;;;;;26.70;28.70;;;;;;1550320;75;815;-65
2022/07/14 12:00:09;;;;;;;;;;;26.80;29.10;;;;;;1537803;76;736;-63
2022/07/14 12:02:14;;;;;;;;;;;26.70;28.40;;;;;;1538436;75;1162;-63
2022/07/14 12:04:16;;;;;;;;;;;26.70;28.60;;;;;;1540323;75;1485;-64
2022/07/14 12:06:18;;;;;;;;;;;26.70;28.40;;;;;;1542468;75;734;-62
2022/07/14 12:08:24;;;;;;;;;;;26.70;29.20;;;;;;1540716;75;749;-64
2022/07/14 12:10:42;;;;;;;;;;;26.70;28.60;;;;;;1541618;75;710;-64
2022/07/14 12:12:45;;;;;;;;;;;26.80;29.20;;;;;;1545360;75;1951;-68
2022/07/14 12:14:49;;;;;;;;;;;26.80;28.10;;;;;;1542513;75;743;-62
2022/07/14 12:16:51;;;;;;;;;;;26.80;28.30;;;;;;1553672;75;778;-65
2022/07/14 12:18:53;;;;;;;;;;;26.80;28.90;;;;;;1554123;76;675;-65
2022/07/14 12:20:55;;;;;;;;;;;26.80;28.60;;;;;;1546006;75;836;-68
2022/07/14 12:22:57;;;;;;;;;;;26.80;28.90;;;;;;1534902;76;1204;-67
2022/07/14 12:24:59;;;;;;;;;;;26.80;28.70;;;;;;1551303;76;775;-64